Time;durP1;ratioP1;P1;durP2;ratioP2;P2;SDS_P1;SDS_P2;PMS_P1;PMS_P2;Temp;Humidity;BMP_temperature;BMP_pressure;BME280_temperature;BME280_humidity;BME280_pressure;Samples;Min_cycle;Max_cycle;Signal;HPM_P1;HPM_P2
2022/06/14 00:01:40;;;;;;;8.88;2.58;;;10.60;99.90;;;;;;4990667;28;20376;-77
2022/06/14 00:04:06;;;;;;;8.55;2.60;;;10.70;99.90;;;;;;4995833;28;20830;-77
2022/06/14 00:06:33;;;;;;;10.13;3.33;;;10.60;99.90;;;;;;4986633;28;20050;-77
2022/06/14 00:08:59;;;;;;;12.70;3.10;;;10.60;99.90;;;;;;4977300;28;20053;-77
2022/06/14 00:11:35;;;;;;;10.50;3.10;;;10.60;99.90;;;;;;4996551;28;20862;-77
2022/06/14 00:14:03;;;;;;;11.60;3.20;;;10.60;99.90;;;;;;4995805;28;20050;-77
2022/06/14 00:16:30;;;;;;;10.02;2.83;;;10.60;99.90;;;;;;4974043;28;20054;-77
2022/06/14 00:18:56;;;;;;;9.65;3.08;;;10.60;99.90;;;;;;4972833;28;20127;-77
2022/06/14 00:21:22;;;;;;;9.77;2.55;;;10.60;99.90;;;;;;4971647;28;20156;-77
2022/06/14 00:23:48;;;;;;;12.35;3.60;;;10.60;99.90;;;;;;4993766;28;20123;-77
2022/06/14 00:26:14;;;;;;;9.60;2.50;;;10.60;99.90;;;;;;4987882;28;20053;-77
2022/06/14 00:28:43;;;;;;;9.80;3.50;;;10.60;99.90;;;;;;4984290;28;20060;-77
2022/06/14 00:31:13;;;;;;;8.93;2.70;;;10.60;99.90;;;;;;4972580;28;20050;-77
2022/06/14 00:33:39;;;;;;;11.68;3.03;;;10.60;99.90;;;;;;4977847;28;20803;-77
2022/06/14 00:36:18;;;;;;;9.82;2.80;;;10.50;99.90;;;;;;4991099;28;20053;-77
2022/06/14 00:38:44;;;;;;;9.05;2.97;;;10.50;99.90;;;;;;4975473;28;20050;-77
2022/06/14 00:41:26;;;;;;;13.98;4.72;;;10.40;99.90;;;;;;4970745;28;20468;-77
2022/06/14 00:43:51;;;;;;;10.93;3.17;;;10.40;99.90;;;;;;4993417;28;20699;-77
2022/06/14 00:46:23;;;;;;;9.52;2.88;;;10.40;99.90;;;;;;4990693;28;20131;-77
2022/06/14 00:48:55;;;;;;;7.68;2.90;;;10.40;99.90;;;;;;4993117;28;20057;-77
2022/06/14 00:51:24;;;;;;;8.48;2.92;;;10.30;99.90;;;;;;4989191;28;20108;-78
2022/06/14 00:53:54;;;;;;;9.70;2.58;;;10.30;99.90;;;;;;4991419;28;20084;-77
2022/06/14 00:56:32;;;;;;;7.43;2.33;;;10.30;99.90;;;;;;4969964;28;20053;-77
2022/06/14 00:59:03;;;;;;;8.90;2.85;;;10.20;99.90;;;;;;4979899;28;20798;-77
2022/06/14 01:01:33;;;;;;;9.95;3.25;;;10.20;99.90;;;;;;5000130;28;20053;-77
2022/06/14 01:04:08;;;;;;;11.60;3.33;;;10.20;99.90;;;;;;4978331;28;20908;-78
2022/06/14 01:07:01;;;;;;;9.52;2.60;;;10.20;99.90;;;;;;4978305;28;20057;-76
2022/06/14 01:09:50;;;;;;;9.57;2.95;;;10.10;99.90;;;;;;4990410;28;20120;-76
2022/06/14 01:12:20;;;;;;;6.68;2.78;;;10.10;99.90;;;;;;4998877;28;20049;-76
2022/06/14 01:15:05;;;;;;;7.93;2.47;;;10.10;99.90;;;;;;4992361;28;20057;-76
2022/06/14 01:17:35;;;;;;;9.65;3.10;;;10.10;99.90;;;;;;4976326;28;20061;-76
2022/06/14 01:20:01;;;;;;;10.35;3.03;;;10.10;99.90;;;;;;4990505;28;20049;-76
2022/06/14 01:22:28;;;;;;;10.45;3.10;;;10.00;99.90;;;;;;4998012;28;20050;-76
2022/06/14 01:24:55;;;;;;;5.68;2.63;;;10.00;99.90;;;;;;4988239;28;20050;-75
2022/06/14 01:27:24;;;;;;;7.57;2.55;;;10.10;99.90;;;;;;4971043;28;20057;-76
2022/06/14 01:29:57;;;;;;;10.10;3.58;;;10.10;99.90;;;;;;4993415;28;20572;-76
2022/06/14 01:32:26;;;;;;;12.25;3.10;;;10.20;99.90;;;;;;4997505;28;20073;-76
2022/06/14 01:34:54;;;;;;;10.38;3.08;;;10.20;99.90;;;;;;4978473;28;20061;-76
2022/06/14 01:37:22;;;;;;;9.75;3.08;;;10.20;99.90;;;;;;4996995;28;20045;-76
2022/06/14 01:39:48;;;;;;;6.90;2.95;;;10.10;99.90;;;;;;4975416;28;20058;-76
2022/06/14 01:42:41;;;;;;;7.00;3.08;;;10.10;99.90;;;;;;4999248;28;20049;-76
2022/06/14 01:45:31;;;;;;;9.57;3.08;;;10.00;99.90;;;;;;4978942;28;20045;-75
2022/06/14 01:48:11;;;;;;;6.50;3.05;;;10.00;99.90;;;;;;4979775;28;20078;-76
2022/06/14 01:53:44;;;;;;;10.57;2.88;;;9.90;99.90;;;;;;4994705;28;20998;-76
2022/06/14 01:56:34;;;;;;;9.65;3.25;;;9.80;99.90;;;;;;4977197;28;20162;-76
2022/06/14 01:59:24;;;;;;;8.13;3.30;;;9.80;99.90;;;;;;4976532;28;20119;-76
2022/06/14 02:02:11;;;;;;;8.25;2.92;;;9.80;99.90;;;;;;4976764;28;20058;-76
2022/06/14 02:05:16;;;;;;;9.40;3.67;;;9.80;99.90;;;;;;4992545;28;20054;-76
2022/06/14 02:08:06;;;;;;;11.90;3.30;;;9.80;99.90;;;;;;4976683;28;20052;-76
2022/06/14 02:10:40;;;;;;;13.32;3.33;;;9.70;99.90;;;;;;4978868;28;20599;-76
2022/06/14 02:13:12;;;;;;;;;;;9.70;99.90;;;;;;4999634;28;20053;-76
2022/06/14 02:15:53;;;;;;;8.27;3.00;;;9.70;99.90;;;;;;4975328;28;19932;-75
2022/06/14 02:18:37;;;;;;;8.48;3.38;;;9.70;99.90;;;;;;4970243;28;20045;-76
2022/06/14 02:21:18;;;;;;;11.02;4.30;;;9.80;99.90;;;;;;4999026;28;20151;-76
2022/06/14 02:24:15;;;;;;;6.25;3.08;;;9.60;99.90;;;;;;4994542;28;20115;-75
2022/06/14 02:26:51;;;;;;;8.88;3.03;;;9.60;99.90;;;;;;4987259;28;20062;-76
2022/06/14 02:29:27;;;;;;;11.07;3.70;;;9.60;99.90;;;;;;4973866;28;20058;-76
2022/06/14 02:32:01;;;;;;;7.57;3.00;;;9.60;99.90;;;;;;4995154;28;20120;-76
2022/06/14 02:34:32;;;;;;;10.77;2.53;;;9.50;99.90;;;;;;4992296;28;20672;-76
2022/06/14 02:36:58;;;;;;;8.52;3.30;;;9.60;99.90;;;;;;4992378;28;20065;-76
2022/06/14 02:39:30;;;;;;;7.63;2.95;;;9.50;99.90;;;;;;4967734;28;20050;-76
2022/06/14 02:42:15;;;;;;;8.13;2.78;;;9.50;99.90;;;;;;4978112;28;20062;-76
2022/06/14 02:44:47;;;;;;;;;;;9.50;99.90;;;;;;4968703;28;20058;-75
2022/06/14 02:47:33;;;;;;;6.82;2.92;;;9.50;99.90;;;;;;4975978;28;21296;-76
2022/06/14 02:50:16;;;;;;;9.13;3.20;;;9.40;99.90;;;;;;4993519;28;20057;-76
2022/06/14 02:52:46;;;;;;;11.57;3.90;;;9.40;99.90;;;;;;4989473;28;20046;-76
2022/06/14 02:55:28;;;;;;;10.40;3.60;;;9.40;99.90;;;;;;4985568;28;20084;-76
2022/06/14 02:58:01;;;;;;;6.70;3.00;;;9.50;99.90;;;;;;4975739;28;20049;-76
2022/06/14 03:00:34;;;;;;;10.20;4.13;;;9.50;99.90;;;;;;4981971;28;20057;-77
2022/06/14 03:03:12;;;;;;;11.50;3.33;;;9.50;99.90;;;;;;4981772;28;20058;-76
2022/06/14 03:05:45;;;;;;;11.32;3.72;;;9.50;99.90;;;;;;4966780;28;20064;-76
2022/06/14 03:08:23;;;;;;;13.27;3.73;;;9.50;99.90;;;;;;4966877;28;20071;-76
2022/06/14 03:10:57;;;;;;;12.75;3.88;;;9.50;99.90;;;;;;4983029;28;20092;-76
2022/06/14 03:13:32;;;;;;;11.48;4.15;;;9.50;99.90;;;;;;4977076;28;20050;-76
2022/06/14 03:16:31;;;;;;;8.00;3.45;;;9.50;99.90;;;;;;4979122;28;20631;-76
2022/06/14 03:19:12;;;;;;;10.55;3.22;;;8.90;99.90;;;;;;4968368;28;20066;-76
2022/06/14 03:21:46;;;;;;;7.85;2.78;;;9.50;99.90;;;;;;4996280;28;20080;-76
2022/06/14 03:24:24;;;;;;;11.35;3.63;;;9.50;99.90;;;;;;4993297;28;20046;-76
2022/06/14 03:27:22;;;;;;;7.75;2.80;;;9.50;99.90;;;;;;4976577;28;20066;-76
2022/06/14 03:30:17;;;;;;;9.10;3.35;;;9.50;99.90;;;;;;4975596;28;20069;-76
2022/06/14 03:33:33;;;;;;;10.07;4.05;;;9.50;99.90;;;;;;4976343;28;20068;-76
2022/06/14 03:36:00;;;;;;;10.07;3.03;;;9.50;99.90;;;;;;4965675;28;20068;-76
2022/06/14 03:38:44;;;;;;;15.48;3.60;;;9.50;99.90;;;;;;4978006;28;20096;-77
2022/06/14 03:41:13;;;;;;;10.98;4.13;;;9.50;99.90;;;;;;4970125;28;20049;-76
2022/06/14 03:43:40;;;;;;;10.90;3.15;;;9.60;99.90;;;;;;4971706;28;20053;-76
2022/06/14 03:46:16;;;;;;;7.03;3.25;;;9.60;99.90;;;;;;4868641;28;3421988;-77
2022/06/14 03:48:46;;;;;;;8.60;3.55;;;9.70;99.90;;;;;;4995819;28;20057;-76
2022/06/14 03:51:44;;;;;;;10.63;3.75;;;9.60;99.90;;;;;;4994223;28;20049;-76
2022/06/14 03:54:10;;;;;;;9.23;3.58;;;9.60;99.90;;;;;;4992441;28;20051;-77
2022/06/14 03:56:35;;;;;;;8.45;3.65;;;9.60;99.90;;;;;;4986893;28;20064;-76
2022/06/14 03:59:15;;;;;;;7.80;3.65;;;9.60;99.90;;;;;;4994472;28;20049;-76
2022/06/14 04:01:49;;;;;;;9.48;3.55;;;9.50;99.90;;;;;;4973432;28;20054;-77
2022/06/14 04:04:18;;;;;;;;;;;9.60;99.90;;;;;;4993181;28;20084;-76
2022/06/14 04:06:58;;;;;;;10.57;4.35;;;9.60;99.90;;;;;;4976471;28;19925;-77
2022/06/14 04:09:39;;;;;;;10.73;4.07;;;9.60;99.90;;;;;;4993819;28;20305;-76
2022/06/14 04:12:38;;;;;;;10.27;3.28;;;9.60;99.90;;;;;;4975856;28;20053;-77
2022/06/14 04:15:57;;;;;;;11.93;3.55;;;9.60;99.90;;;;;;4982298;28;20074;-77
2022/06/14 04:18:35;;;;;;;10.77;4.78;;;9.70;99.90;;;;;;4922638;29;20051;-77
2022/06/14 04:21:23;;;;;;;14.98;4.75;;;9.70;99.90;;;;;;4967959;28;20137;-76
2022/06/14 04:24:14;;;;;;;9.43;3.25;;;9.70;99.90;;;;;;4977566;28;20057;-77
2022/06/14 04:26:48;;;;;;;9.55;4.38;;;9.70;99.90;;;;;;4974351;28;20587;-76
2022/06/14 04:29:32;;;;;;;13.70;4.13;;;9.80;99.90;;;;;;4996142;28;20073;-77
2022/06/14 04:32:03;;;;;;;12.27;4.23;;;9.90;99.90;;;;;;4993748;28;20128;-77
2022/06/14 04:34:51;;;;;;;11.70;4.60;;;9.90;99.90;;;;;;4993943;28;20064;-77
2022/06/14 04:37:26;;;;;;;7.80;3.60;;;9.90;99.90;;;;;;4993061;28;20073;-76
2022/06/14 04:40:17;;;;;;;10.20;4.63;;;10.00;99.90;;;;;;4992150;28;20042;-76
2022/06/14 04:42:47;;;;;;;9.95;4.32;;;10.00;99.90;;;;;;4997302;28;20076;-78
2022/06/14 04:45:20;;;;;;;9.77;3.63;;;10.10;99.90;;;;;;4986462;28;20073;-78
2022/06/14 04:48:00;;;;;;;13.23;3.95;;;10.10;99.90;;;;;;4993537;28;20069;-76
2022/06/14 04:50:38;;;;;;;12.40;3.83;;;10.20;99.90;;;;;;4980771;28;20485;-77
2022/06/14 04:53:17;;;;;;;7.95;3.78;;;10.20;99.90;;;;;;4997095;28;20054;-77
2022/06/14 04:55:55;;;;;;;12.80;4.35;;;10.30;99.90;;;;;;4995938;28;20100;-77
2022/06/14 04:58:25;;;;;;;11.07;4.20;;;10.30;99.90;;;;;;4994551;28;20060;-78
2022/06/14 05:00:57;;;;;;;11.70;4.45;;;10.40;99.90;;;;;;4999020;28;20071;-77
2022/06/14 05:03:26;;;;;;;13.05;4.22;;;10.40;99.90;;;;;;4990777;28;20095;-78
2022/06/14 05:06:04;;;;;;;10.82;4.63;;;10.40;99.90;;;;;;4998542;28;20045;-78
2022/06/14 05:08:29;;;;;;;15.60;4.70;;;10.40;99.90;;;;;;4990842;28;20064;-78
2022/06/14 05:11:04;;;;;;;11.88;4.18;;;10.50;99.90;;;;;;4999968;28;20038;-78
2022/06/14 05:14:03;;;;;;;11.75;4.53;;;10.50;99.90;;;;;;4999639;28;20746;-78
2022/06/14 05:16:34;;;;;;;12.77;3.88;;;10.50;99.90;;;;;;4978464;28;20696;-78
2022/06/14 05:19:11;;;;;;;10.88;4.25;;;10.60;99.90;;;;;;4996572;28;20054;-78
2022/06/14 05:21:53;;;;;;;10.35;3.90;;;10.60;99.90;;;;;;4998971;28;20038;-78
2022/06/14 05:24:20;;;;;;;11.52;4.07;;;10.70;99.90;;;;;;4983183;28;20500;-78
2022/06/14 05:26:58;;;;;;;16.98;4.30;;;10.80;99.90;;;;;;4998041;28;20054;-78
2022/06/14 05:29:46;;;;;;;11.50;3.80;;;10.80;99.90;;;;;;4978929;28;20704;-78
2022/06/14 05:32:27;;;;;;;12.70;4.45;;;10.90;99.90;;;;;;4977064;28;20715;-77
2022/06/14 05:35:12;;;;;;;11.85;3.97;;;11.00;99.90;;;;;;4988676;28;20049;-77
2022/06/14 05:38:02;;;;;;;13.68;4.00;;;11.00;99.90;;;;;;4972571;28;20046;-78
2022/06/14 05:40:34;;;;;;;10.77;4.45;;;11.10;99.90;;;;;;4972596;28;20053;-78
2022/06/14 05:43:12;;;;;;;11.10;3.58;;;11.10;99.90;;;;;;4995543;28;20119;-79
2022/06/14 05:45:57;;;;;;;14.45;4.18;;;11.20;99.90;;;;;;4996733;28;20065;-79
2022/06/14 05:48:30;;;;;;;15.02;4.18;;;11.20;99.90;;;;;;5000191;28;20053;-82
2022/06/14 05:51:00;;;;;;;9.82;3.45;;;11.30;99.90;;;;;;4986910;28;20520;-83
2022/06/14 05:53:50;;;;;;;8.80;3.22;;;11.30;99.90;;;;;;4993867;28;20588;-77
2022/06/14 05:56:33;;;;;;;10.43;3.08;;;11.40;99.90;;;;;;4995197;28;20177;-73
2022/06/14 05:59:44;;;;;;;10.40;2.78;;;11.40;99.90;;;;;;5000341;28;20042;-73
2022/06/14 06:02:28;;;;;;;8.60;2.95;;;11.50;99.90;;;;;;4922643;29;20066;-73
2022/06/14 06:05:21;;;;;;;10.25;3.40;;;11.60;99.90;;;;;;4994523;28;20058;-73
2022/06/14 06:07:59;;;;;;;8.88;2.90;;;11.70;99.90;;;;;;4971414;28;20053;-74
2022/06/14 06:10:38;;;;;;;11.98;2.83;;;11.80;99.90;;;;;;4993608;28;20149;-72
2022/06/14 06:13:19;;;;;;;11.70;3.20;;;11.90;99.90;;;;;;4991472;28;20046;-73
2022/06/14 06:15:47;;;;;;;9.70;3.20;;;12.00;99.90;;;;;;4995640;28;20046;-72
2022/06/14 06:18:25;;;;;;;11.70;2.85;;;12.10;99.90;;;;;;4999046;28;20053;-74
2022/06/14 06:21:30;;;;;;;10.30;2.83;;;12.10;99.90;;;;;;4989031;28;20043;-73
2022/06/14 06:24:26;;;;;;;12.15;2.97;;;12.20;99.90;;;;;;4995120;28;20068;-73
2022/06/14 06:27:00;;;;;;;11.00;2.95;;;12.30;99.90;;;;;;4993848;28;20166;-74
2022/06/14 06:29:39;;;;;;;10.23;2.80;;;12.40;99.90;;;;;;5000137;28;20053;-73
2022/06/14 06:32:07;;;;;;;10.35;3.28;;;12.40;99.90;;;;;;5000162;28;20130;-73
2022/06/14 06:34:33;;;;;;;11.45;2.78;;;12.50;99.90;;;;;;4983632;28;20057;-73
2022/06/14 06:37:20;;;;;;;10.68;2.58;;;12.60;99.90;;;;;;5000176;28;20050;-73
2022/06/14 06:39:58;;;;;;;6.20;2.15;;;13.10;99.90;;;;;;4999947;28;20053;-73
2022/06/14 06:42:33;;;;;;;8.75;2.40;;;12.90;99.90;;;;;;4986358;28;20069;-74
2022/06/14 06:45:15;;;;;;;9.25;1.95;;;13.00;99.90;;;;;;4982195;28;20046;-73
2022/06/14 06:47:56;;;;;;;7.78;2.13;;;13.00;99.90;;;;;;4983287;28;20163;-73
2022/06/14 06:50:35;;;;;;;8.15;1.98;;;13.10;99.90;;;;;;4996985;28;20095;-73
2022/06/14 06:53:06;;;;;;;6.95;2.22;;;13.10;99.90;;;;;;4999593;28;20092;-74
2022/06/14 06:55:36;;;;;;;6.78;2.10;;;13.20;99.90;;;;;;5000152;28;20233;-73
2022/06/14 06:58:06;;;;;;;12.35;1.90;;;13.40;99.90;;;;;;4999644;28;20580;-73
2022/06/14 07:00:33;;;;;;;7.53;1.50;;;13.50;99.90;;;;;;4999795;28;20057;-73
2022/06/14 07:03:06;;;;;;;7.38;1.77;;;13.60;99.90;;;;;;4999509;28;20050;-73
2022/06/14 07:05:32;;;;;;;5.63;1.50;;;13.70;99.90;;;;;;5000416;28;20042;-73
2022/06/14 07:07:57;;;;;;;6.15;1.70;;;14.00;99.90;;;;;;4981706;28;20493;-73
2022/06/14 07:10:50;;;;;;;12.35;2.10;;;14.10;99.90;;;;;;4982323;28;20596;-73
2022/06/14 07:13:45;;;;;;;9.18;2.20;;;14.30;99.90;;;;;;4973368;28;20077;-73
2022/06/14 07:16:16;;;;;;;;;;;14.50;99.90;;;;;;4999603;28;20647;-73
2022/06/14 07:18:53;;;;;;;12.00;1.60;;;14.90;99.90;;;;;;4998999;28;20458;-73
2022/06/14 07:21:20;;;;;;;8.95;1.88;;;15.40;99.90;;;;;;4999639;28;20061;-74
2022/06/14 07:24:10;;;;;;;8.52;1.83;;;15.50;99.90;;;;;;4999426;28;20042;-73
2022/06/14 07:26:40;;;;;;;9.65;1.85;;;15.70;99.90;;;;;;5000097;28;20046;-74
2022/06/14 07:29:21;;;;;;;8.02;1.70;;;15.70;99.90;;;;;;4999259;28;20050;-73
2022/06/14 07:32:07;;;;;;;6.00;1.55;;;15.80;99.90;;;;;;4999130;28;20053;-73
2022/06/14 07:34:34;;;;;;;7.97;2.45;;;16.20;99.90;;;;;;4999818;28;20049;-73
2022/06/14 07:37:14;;;;;;;6.80;1.50;;;16.50;99.90;;;;;;4981286;28;20054;-74
2022/06/14 07:39:43;;;;;;;11.07;2.17;;;16.60;99.90;;;;;;4998442;28;20053;-73
2022/06/14 07:42:28;;;;;;;6.50;1.40;;;16.60;99.90;;;;;;4999200;28;20089;-74
2022/06/14 07:45:08;;;;;;;;;;;16.50;99.90;;;;;;4999399;28;20054;-73
2022/06/14 07:47:55;;;;;;;5.93;1.67;;;16.40;99.90;;;;;;4999968;28;20044;-74
2022/06/14 07:50:34;;;;;;;6.50;1.50;;;16.50;99.90;;;;;;4999835;28;20850;-74
2022/06/14 07:53:11;;;;;;;8.82;1.60;;;16.60;99.90;;;;;;4979248;28;20247;-74
2022/06/14 07:55:45;;;;;;;5.85;1.23;;;16.70;99.90;;;;;;4979943;28;20054;-73
2022/06/14 07:58:23;;;;;;;6.10;1.40;;;16.90;99.90;;;;;;4979701;28;20457;-73
2022/06/14 08:01:09;;;;;;;5.25;1.73;;;17.20;99.90;;;;;;4992922;28;20048;-74
2022/06/14 08:03:44;;;;;;;6.97;1.50;;;17.30;99.90;;;;;;4999234;28;20196;-74
2022/06/14 08:06:31;;;;;;;6.05;1.33;;;17.50;99.90;;;;;;4998311;28;20061;-74
2022/06/14 08:09:10;;;;;;;4.78;1.20;;;17.20;99.90;;;;;;4998746;28;20849;-74
2022/06/14 08:11:46;;;;;;;4.05;1.52;;;17.10;99.90;;;;;;4999020;28;20045;-72
2022/06/14 08:14:19;;;;;;;4.35;1.20;;;17.10;99.90;;;;;;4998905;28;20123;-72
2022/06/14 08:16:46;;;;;;;6.70;0.95;;;17.10;99.90;;;;;;4981085;28;20744;-72
2022/06/14 08:19:28;;;;;;;3.95;1.10;;;17.40;99.90;;;;;;4998096;28;20046;-72
2022/06/14 08:22:00;;;;;;;6.05;1.52;;;17.70;99.90;;;;;;4998375;28;20761;-72
2022/06/14 08:24:33;;;;;;;5.70;1.13;;;17.80;99.90;;;;;;4998877;28;20038;-72
2022/06/14 08:27:09;;;;;;;5.28;1.10;;;17.70;99.90;;;;;;4981482;28;20508;-72
2022/06/14 08:29:52;;;;;;;5.22;1.30;;;17.80;99.90;;;;;;4998488;28;20060;-72
2022/06/14 08:32:42;;;;;;;7.53;1.15;;;17.90;99.90;;;;;;4999312;28;20141;-72
2022/06/14 08:35:24;;;;;;;6.40;1.10;;;18.20;99.90;;;;;;4997575;28;20050;-72
2022/06/14 08:37:49;;;;;;;6.53;1.20;;;18.40;99.90;;;;;;4999230;28;20054;-72
2022/06/14 08:40:34;;;;;;;6.47;1.40;;;18.50;99.90;;;;;;4998845;28;20046;-72
2022/06/14 08:43:12;;;;;;;7.38;1.20;;;18.40;99.90;;;;;;4980469;28;20077;-72
2022/06/14 08:46:02;;;;;;;4.53;0.90;;;18.60;99.90;;;;;;4999418;28;20061;-72
2022/06/14 08:48:43;;;;;;;9.38;1.38;;;18.60;99.90;;;;;;4998000;28;20153;-72
2022/06/14 08:51:09;;;;;;;5.13;1.00;;;18.60;99.90;;;;;;4998771;28;20145;-72
2022/06/14 08:53:56;;;;;;;7.45;1.23;;;18.50;99.90;;;;;;4999009;28;20053;-72
2022/06/14 08:56:32;;;;;;;5.65;1.17;;;18.60;99.90;;;;;;4998059;28;20152;-72
2022/06/14 08:59:13;;;;;;;4.47;1.00;;;18.80;99.90;;;;;;4999003;28;20048;-72
2022/06/14 09:01:51;;;;;;;5.32;1.05;;;18.80;99.90;;;;;;4999106;28;20057;-72
2022/06/14 09:04:55;;;;;;;5.30;1.75;;;18.60;99.90;;;;;;4997593;28;20054;-72
2022/06/14 09:07:59;;;;;;;4.75;1.02;;;18.40;99.90;;;;;;4961612;28;20058;-72
2022/06/14 09:10:52;;;;;;;4.85;1.27;;;18.30;99.90;;;;;;4978841;28;20097;-72
2022/06/14 09:13:41;;;;;;;5.13;1.25;;;18.10;99.90;;;;;;4998739;28;20046;-72
2022/06/14 09:16:25;;;;;;;4.75;0.90;;;18.10;99.90;;;;;;4991565;28;20065;-72
2022/06/14 09:18:53;;;;;;;4.97;1.20;;;18.20;99.90;;;;;;5002324;28;20152;-72
2022/06/14 09:21:31;;;;;;;6.55;1.00;;;18.40;99.90;;;;;;5002476;28;20296;-72
2022/06/14 09:24:14;;;;;;;4.43;1.27;;;18.60;99.90;;;;;;5000249;28;20054;-72
2022/06/14 09:27:13;;;;;;;4.22;1.20;;;18.60;99.90;;;;;;5002535;28;20060;-72
2022/06/14 09:30:00;;;;;;;3.05;1.17;;;18.50;99.90;;;;;;5000983;28;20058;-72
2022/06/14 09:33:15;;;;;;;5.55;1.00;;;18.40;99.90;;;;;;5001574;28;20054;-72
2022/06/14 09:36:05;;;;;;;4.45;1.33;;;18.30;99.90;;;;;;5002416;28;20108;-72
2022/06/14 09:38:36;;;;;;;4.82;1.00;;;18.30;99.90;;;;;;5000487;28;20736;-72
2022/06/14 09:41:20;;;;;;;3.63;1.08;;;18.30;99.90;;;;;;4983410;28;20676;-72
2022/06/14 09:44:16;;;;;;;6.60;1.50;;;18.40;99.90;;;;;;5001852;28;20052;-72
2022/06/14 09:47:06;;;;;;;3.50;1.20;;;18.60;99.90;;;;;;5000837;28;20131;-72
2022/06/14 09:50:08;;;;;;;3.83;1.20;;;18.80;99.90;;;;;;4982117;28;20050;-72
2022/06/14 09:52:53;;;;;;;5.00;1.40;;;19.10;99.90;;;;;;4973762;28;20061;-72
2022/06/14 09:55:44;;;;;;;4.05;1.10;;;19.30;99.90;;;;;;5016823;28;20058;-72
2022/06/14 09:58:22;;;;;;;6.05;1.30;;;19.50;99.90;;;;;;4983150;28;20057;-72
2022/06/14 10:00:57;;;;;;;5.72;1.40;;;19.50;99.90;;;;;;5001482;28;20144;-72
2022/06/14 10:03:50;;;;;;;8.23;1.60;;;19.40;99.90;;;;;;5000377;28;20053;-72
2022/06/14 10:06:31;;;;;;;5.75;1.35;;;19.20;99.40;;;;;;5000723;28;20116;-72
2022/06/14 10:09:03;;;;;;;6.32;1.40;;;19.00;99.90;;;;;;5001392;28;20135;-72
2022/06/14 10:11:57;;;;;;;4.85;1.10;;;19.10;99.30;;;;;;5001548;28;20053;-72
2022/06/14 10:14:47;;;;;;;5.32;1.10;;;19.30;99.90;;;;;;4983416;28;20061;-72
2022/06/14 10:17:38;;;;;;;4.75;1.15;;;19.60;99.90;;;;;;4988060;28;20042;-72
2022/06/14 10:20:37;;;;;;;3.33;0.90;;;19.90;99.00;;;;;;4982284;28;20046;-72
2022/06/14 10:23:21;;;;;;;3.58;0.90;;;20.00;99.50;;;;;;4999586;28;20108;-74
2022/06/14 10:29:18;;;;;;;4.97;1.08;;;19.70;99.80;;;;;;5000557;28;20478;-72
2022/06/14 10:32:10;;;;;;;4.40;0.82;;;19.60;99.70;;;;;;4999992;28;20060;-73
2022/06/14 10:34:57;;;;;;;4.30;0.98;;;19.50;99.90;;;;;;5000594;28;20041;-72
2022/06/14 10:37:38;;;;;;;5.72;0.90;;;19.40;99.90;;;;;;5000487;28;20568;-72
2022/06/14 10:40:34;;;;;;;3.25;1.00;;;19.50;99.90;;;;;;5000970;28;20666;-72
2022/06/14 10:43:07;;;;;;;3.72;1.00;;;19.50;99.70;;;;;;4999656;28;20124;-72
2022/06/14 10:45:51;;;;;;;3.65;1.15;;;19.60;99.90;;;;;;5000529;28;20539;-72
2022/06/14 10:48:23;;;;;;;;;;;19.70;99.90;;;;;;4982337;28;20061;-72
2022/06/14 10:51:16;;;;;;;4.30;1.00;;;19.70;99.90;;;;;;4981946;28;19929;-73
2022/06/14 10:53:50;;;;;;;4.20;1.15;;;19.70;99.90;;;;;;4963161;28;20149;-72
2022/06/14 10:57:04;;;;;;;7.85;1.10;;;19.60;99.90;;;;;;4964719;28;20086;-72
2022/06/14 11:00:05;;;;;;;5.00;1.33;;;19.60;99.40;;;;;;4964885;28;20069;-72
2022/06/14 11:02:47;;;;;;;6.93;1.20;;;19.60;99.00;;;;;;4975994;28;20580;-72
2022/06/14 11:05:35;;;;;;;5.50;1.20;;;19.50;98.30;;;;;;4999621;28;20563;-72
2022/06/14 11:08:24;;;;;;;5.20;1.10;;;19.40;99.90;;;;;;4999717;28;20057;-72
2022/06/14 11:11:19;;;;;;;4.70;0.98;;;19.40;99.90;;;;;;4998721;28;20050;-72
2022/06/14 11:14:29;;;;;;;5.63;1.40;;;19.50;99.90;;;;;;5000512;28;20069;-72
2022/06/14 11:17:05;;;;;;;5.25;1.00;;;19.70;99.40;;;;;;4999094;28;20049;-72
2022/06/14 11:19:56;;;;;;;4.47;1.00;;;19.80;99.40;;;;;;5000338;28;20049;-74
2022/06/14 11:23:01;;;;;;;4.82;1.00;;;19.90;98.60;;;;;;5000576;28;20049;-75
2022/06/14 11:25:46;;;;;;;;;;;19.90;98.60;;;;;;4999907;28;20410;-75
2022/06/14 11:28:20;;;;;;;4.20;1.00;;;19.90;98.00;;;;;;4980146;28;19929;-75
2022/06/14 11:31:12;;;;;;;3.90;1.05;;;19.90;99.10;;;;;;4980176;28;20155;-75
2022/06/14 11:33:48;;;;;;;3.15;0.80;;;19.90;99.00;;;;;;4988232;28;20054;-75
2022/06/14 11:36:33;;;;;;;3.03;0.70;;;19.90;99.10;;;;;;4999834;28;20095;-75
2022/06/14 11:39:41;;;;;;;4.28;0.80;;;19.90;98.90;;;;;;4998532;28;20119;-75
2022/06/14 11:42:23;;;;;;;3.38;1.00;;;20.00;99.60;;;;;;4984326;28;20564;-75
2022/06/14 11:44:54;;;;;;;3.63;0.95;;;20.00;98.70;;;;;;4979509;28;20050;-78
2022/06/14 11:47:38;;;;;;;4.55;1.10;;;20.20;99.30;;;;;;4989600;28;20432;-77
2022/06/14 11:50:16;;;;;;;3.85;0.93;;;20.20;99.70;;;;;;4981110;28;20064;-76
2022/06/14 11:52:51;;;;;;;5.32;1.17;;;20.30;99.30;;;;;;4978346;28;20599;-79
2022/06/14 11:55:28;;;;;;;3.53;1.00;;;20.30;99.30;;;;;;4981931;28;20059;-78
2022/06/14 11:58:05;;;;;;;3.97;0.98;;;20.40;99.30;;;;;;4999212;28;20052;-78
2022/06/14 12:00:45;;;;;;;4.68;1.15;;;20.60;99.30;;;;;;4998245;28;20121;-79
2022/06/14 12:03:20;;;;;;;4.60;1.10;;;20.60;97.80;;;;;;4998976;28;20054;-79
2022/06/14 12:06:00;;;;;;;4.50;1.20;;;20.60;97.00;;;;;;4992615;28;20050;-78
2022/06/14 12:09:10;;;;;;;6.50;0.98;;;20.70;98.00;;;;;;4980016;28;20053;-78
2022/06/14 12:11:41;;;;;;;3.53;1.00;;;20.80;97.90;;;;;;4980149;28;20054;-78
2022/06/14 12:14:34;;;;;;;4.95;1.10;;;21.00;97.00;;;;;;4979383;28;20046;-78
2022/06/14 12:17:26;;;;;;;3.83;1.00;;;21.20;97.00;;;;;;4991004;28;20711;-81
2022/06/14 12:20:16;;;;;;;2.85;1.00;;;21.50;96.60;;;;;;4983111;28;20050;-81
2022/06/14 12:23:00;;;;;;;3.92;1.10;;;21.70;95.50;;;;;;4990966;28;20056;-81
2022/06/14 12:29:01;;;;;;;4.78;0.93;;;21.90;96.10;;;;;;4998544;28;20054;-81
2022/06/14 12:32:03;;;;;;;3.65;1.20;;;21.80;96.40;;;;;;4999540;28;20156;-82
2022/06/14 12:34:46;;;;;;;4.22;1.30;;;21.80;96.30;;;;;;4997550;28;20054;-82
2022/06/14 12:37:14;;;;;;;4.95;1.00;;;21.80;96.20;;;;;;4976942;28;20056;-82
2022/06/14 12:39:47;;;;;;;4.63;1.08;;;21.70;96.60;;;;;;4981439;28;20208;-81
2022/06/14 12:42:47;;;;;;;3.90;0.80;;;21.80;95.80;;;;;;4997347;28;20116;-82
2022/06/14 12:45:18;;;;;;;3.95;1.02;;;21.90;96.80;;;;;;4979446;28;20128;-82
2022/06/14 12:47:51;;;;;;;7.00;1.00;;;22.00;95.00;;;;;;5000591;28;20050;-84
2022/06/14 12:50:32;;;;;;;3.88;1.00;;;22.30;96.00;;;;;;4984550;28;20473;-84
2022/06/14 12:53:04;;;;;;;3.28;0.80;;;22.60;96.50;;;;;;5001389;28;20073;-83
2022/06/14 12:55:39;;;;;;;5.35;1.23;;;22.80;95.70;;;;;;4998812;28;20052;-84
2022/06/14 12:58:20;;;;;;;2.72;0.98;;;23.00;95.70;;;;;;4983049;28;20846;-84
2022/06/14 13:00:54;;;;;;;1.85;0.90;;;23.00;95.20;;;;;;4973631;28;20053;-84
2022/06/14 13:04:01;;;;;;;6.88;1.17;;;22.90;95.40;;;;;;5001622;28;20053;-84
2022/06/14 13:06:53;;;;;;;3.05;1.00;;;22.70;94.70;;;;;;4979996;28;20093;-84
2022/06/14 13:09:54;;;;;;;6.07;1.20;;;22.50;94.60;;;;;;5001501;28;20065;-84
2022/06/14 13:12:32;;;;;;;5.22;1.10;;;22.30;92.10;;;;;;5001191;28;20076;-83
2022/06/14 13:15:12;;;;;;;3.63;0.95;;;22.10;94.50;;;;;;4984126;28;20826;-83
2022/06/14 13:18:21;;;;;;;3.33;0.80;;;22.00;94.60;;;;;;4998002;28;20065;-83
2022/06/14 13:21:05;;;;;;;3.75;1.02;;;22.00;94.70;;;;;;4995492;28;20053;-83
2022/06/14 13:23:52;;;;;;;5.30;1.27;;;21.90;95.10;;;;;;4984132;28;20050;-82
2022/06/14 13:27:02;;;;;;;3.28;1.08;;;21.80;95.50;;;;;;4983885;28;20097;-82
2022/06/14 13:29:57;;;;;;;2.60;0.90;;;21.80;95.30;;;;;;4924699;28;20179;-83
2022/06/14 13:32:55;;;;;;;2.97;0.95;;;21.60;96.10;;;;;;4984169;28;20057;-82
2022/06/14 13:35:39;;;;;;;5.82;1.27;;;21.50;96.70;;;;;;4933406;28;20058;-83
2022/06/14 13:38:45;;;;;;;4.83;1.20;;;21.60;96.50;;;;;;4981224;28;20148;-83
2022/06/14 13:41:18;;;;;;;4.78;0.98;;;21.70;95.70;;;;;;4986500;28;20293;-79
2022/06/14 13:44:06;;;;;;;3.53;1.05;;;21.80;96.10;;;;;;4984176;28;20485;-82
2022/06/14 13:46:47;;;;;;;3.50;0.90;;;21.80;93.30;;;;;;5006081;28;20081;-83
2022/06/14 13:49:35;;;;;;;3.63;0.93;;;21.90;93.90;;;;;;5004279;28;20048;-81
2022/06/14 13:52:08;;;;;;;2.95;0.98;;;22.00;94.30;;;;;;4998444;28;20069;-82
2022/06/14 13:54:52;;;;;;;4.85;1.30;;;22.10;94.80;;;;;;4976910;28;20107;-80
2022/06/14 13:57:30;;;;;;;4.68;1.10;;;22.10;94.30;;;;;;4983973;28;20064;-80
2022/06/14 14:00:18;;;;;;;4.25;0.85;;;22.20;94.30;;;;;;5013756;28;20151;-80
2022/06/14 14:03:21;;;;;;;5.20;0.98;;;22.20;94.20;;;;;;4994230;28;20151;-81
2022/06/14 14:06:01;;;;;;;4.30;1.13;;;22.30;93.90;;;;;;4985819;28;20056;-81
2022/06/14 14:08:56;;;;;;;4.78;0.90;;;22.30;94.60;;;;;;5004426;28;20049;-83